sensor_id;sensor_type;location;lat;lon;timestamp;P1;durP1;ratioP1;P2;durP2;ratioP2
23270;SDS011;11804;51.118;17.058;2023-07-16T00:02:05;9.55;;;3.22;;
23270;SDS011;11804;51.118;17.058;2023-07-16T00:04:33;6.42;;;3.25;;
23270;SDS011;11804;51.118;17.058;2023-07-16T00:07:00;6.10;;;3.25;;
23270;SDS011;11804;51.118;17.058;2023-07-16T00:09:28;5.00;;;3.00;;
23270;SDS011;11804;51.118;17.058;2023-07-16T00:11:56;3.10;;;2.50;;
23270;SDS011;11804;51.118;17.058;2023-07-16T00:14:24;4.05;;;2.58;;
23270;SDS011;11804;51.118;17.058;2023-07-16T00:16:51;3.98;;;2.90;;
23270;SDS011;11804;51.118;17.058;2023-07-16T00:19:19;2.67;;;2.47;;
23270;SDS011;11804;51.118;17.058;2023-07-16T00:21:47;4.00;;;2.60;;
23270;SDS011;11804;51.118;17.058;2023-07-16T00:24:14;3.47;;;2.50;;
23270;SDS011;11804;51.118;17.058;2023-07-16T00:26:42;3.80;;;2.77;;
23270;SDS011;11804;51.118;17.058;2023-07-16T00:29:10;4.90;;;2.90;;
23270;SDS011;11804;51.118;17.058;2023-07-16T00:31:38;4.15;;;2.60;;
23270;SDS011;11804;51.118;17.058;2023-07-16T00:34:05;3.30;;;2.35;;
23270;SDS011;11804;51.118;17.058;2023-07-16T00:36:33;5.80;;;2.72;;
23270;SDS011;11804;51.118;17.058;2023-07-16T00:39:00;4.40;;;2.55;;
23270;SDS011;11804;51.118;17.058;2023-07-16T00:41:28;2.95;;;2.60;;
23270;SDS011;11804;51.118;17.058;2023-07-16T00:43:56;3.70;;;2.80;;
23270;SDS011;11804;51.118;17.058;2023-07-16T00:46:24;3.25;;;2.52;;
23270;SDS011;11804;51.118;17.058;2023-07-16T00:48:52;2.40;;;2.17;;
23270;SDS011;11804;51.118;17.058;2023-07-16T00:51:20;2.92;;;2.42;;
23270;SDS011;11804;51.118;17.058;2023-07-16T00:53:50;4.25;;;2.58;;
23270;SDS011;11804;51.118;17.058;2023-07-16T00:56:18;5.17;;;2.90;;
23270;SDS011;11804;51.118;17.058;2023-07-16T00:58:46;2.87;;;2.58;;
23270;SDS011;11804;51.118;17.058;2023-07-16T01:01:15;3.52;;;2.60;;
23270;SDS011;11804;51.118;17.058;2023-07-16T01:03:43;3.72;;;2.72;;
23270;SDS011;11804;51.118;17.058;2023-07-16T01:06:18;4.08;;;2.85;;
23270;SDS011;11804;51.118;17.058;2023-07-16T01:08:49;3.25;;;2.70;;
23270;SDS011;11804;51.118;17.058;2023-07-16T01:11:20;2.58;;;2.27;;
23270;SDS011;11804;51.118;17.058;2023-07-16T01:13:49;3.65;;;2.37;;
23270;SDS011;11804;51.118;17.058;2023-07-16T01:16:20;3.98;;;2.60;;
23270;SDS011;11804;51.118;17.058;2023-07-16T01:18:50;5.00;;;3.17;;
23270;SDS011;11804;51.118;17.058;2023-07-16T01:21:21;3.37;;;2.62;;
23270;SDS011;11804;51.118;17.058;2023-07-16T01:31:59;3.85;;;2.52;;
23270;SDS011;11804;51.118;17.058;2023-07-16T01:34:29;4.72;;;3.15;;
23270;SDS011;11804;51.118;17.058;2023-07-16T01:37:04;4.80;;;2.45;;
23270;SDS011;11804;51.118;17.058;2023-07-16T01:39:29;3.90;;;2.90;;
23270;SDS011;11804;51.118;17.058;2023-07-16T01:41:59;4.40;;;2.92;;
23270;SDS011;11804;51.118;17.058;2023-07-16T01:44:27;3.25;;;2.60;;
23270;SDS011;11804;51.118;17.058;2023-07-16T01:49:41;8.78;;;3.25;;
23270;SDS011;11804;51.118;17.058;2023-07-16T01:52:09;3.90;;;2.87;;
23270;SDS011;11804;51.118;17.058;2023-07-16T01:54:36;3.33;;;2.65;;
23270;SDS011;11804;51.118;17.058;2023-07-16T01:57:04;8.43;;;3.92;;
23270;SDS011;11804;51.118;17.058;2023-07-16T01:59:33;3.00;;;2.65;;
23270;SDS011;11804;51.118;17.058;2023-07-16T02:02:01;3.50;;;2.70;;
23270;SDS011;11804;51.118;17.058;2023-07-16T02:04:29;3.55;;;2.45;;
23270;SDS011;11804;51.118;17.058;2023-07-16T02:06:56;4.40;;;2.60;;
23270;SDS011;11804;51.118;17.058;2023-07-16T02:09:24;5.33;;;3.10;;
23270;SDS011;11804;51.118;17.058;2023-07-16T02:11:52;4.05;;;2.87;;
23270;SDS011;11804;51.118;17.058;2023-07-16T02:14:20;3.72;;;2.85;;
23270;SDS011;11804;51.118;17.058;2023-07-16T02:16:47;5.95;;;2.85;;
23270;SDS011;11804;51.118;17.058;2023-07-16T02:19:16;4.20;;;2.25;;
23270;SDS011;11804;51.118;17.058;2023-07-16T02:21:44;3.42;;;2.40;;
23270;SDS011;11804;51.118;17.058;2023-07-16T02:24:11;4.20;;;2.98;;
23270;SDS011;11804;51.118;17.058;2023-07-16T02:26:39;4.22;;;2.33;;
23270;SDS011;11804;51.118;17.058;2023-07-16T02:29:06;4.05;;;2.92;;
23270;SDS011;11804;51.118;17.058;2023-07-16T02:31:34;3.60;;;2.45;;
23270;SDS011;11804;51.118;17.058;2023-07-16T02:34:02;4.22;;;2.67;;
23270;SDS011;11804;51.118;17.058;2023-07-16T02:36:30;3.22;;;2.37;;
23270;SDS011;11804;51.118;17.058;2023-07-16T02:38:58;3.90;;;2.60;;
23270;SDS011;11804;51.118;17.058;2023-07-16T02:41:25;5.72;;;3.30;;
23270;SDS011;11804;51.118;17.058;2023-07-16T02:44:00;3.40;;;2.60;;
23270;SDS011;11804;51.118;17.058;2023-07-16T02:46:29;4.30;;;2.92;;
23270;SDS011;11804;51.118;17.058;2023-07-16T02:48:57;5.78;;;2.75;;
23270;SDS011;11804;51.118;17.058;2023-07-16T02:51:25;8.38;;;3.10;;
23270;SDS011;11804;51.118;17.058;2023-07-16T02:53:52;3.90;;;3.10;;
23270;SDS011;11804;51.118;17.058;2023-07-16T02:56:20;3.70;;;2.80;;
23270;SDS011;11804;51.118;17.058;2023-07-16T02:58:48;4.28;;;3.00;;
23270;SDS011;11804;51.118;17.058;2023-07-16T03:01:15;4.97;;;2.83;;
23270;SDS011;11804;51.118;17.058;2023-07-16T03:03:43;3.05;;;2.47;;
23270;SDS011;11804;51.118;17.058;2023-07-16T03:06:10;4.17;;;2.92;;
23270;SDS011;11804;51.118;17.058;2023-07-16T03:08:41;5.50;;;2.70;;
23270;SDS011;11804;51.118;17.058;2023-07-16T03:11:08;4.25;;;3.17;;
23270;SDS011;11804;51.118;17.058;2023-07-16T03:13:35;9.83;;;2.72;;
23270;SDS011;11804;51.118;17.058;2023-07-16T03:16:03;5.62;;;2.98;;
23270;SDS011;11804;51.118;17.058;2023-07-16T03:18:32;4.92;;;3.08;;
23270;SDS011;11804;51.118;17.058;2023-07-16T03:20:59;3.62;;;2.95;;
23270;SDS011;11804;51.118;17.058;2023-07-16T03:23:28;5.30;;;2.95;;
23270;SDS011;11804;51.118;17.058;2023-07-16T03:25:58;3.95;;;2.75;;
23270;SDS011;11804;51.118;17.058;2023-07-16T03:28:25;5.70;;;3.70;;
23270;SDS011;11804;51.118;17.058;2023-07-16T03:30:53;3.60;;;2.70;;
23270;SDS011;11804;51.118;17.058;2023-07-16T03:33:21;3.77;;;2.80;;
23270;SDS011;11804;51.118;17.058;2023-07-16T03:35:49;3.12;;;2.83;;
23270;SDS011;11804;51.118;17.058;2023-07-16T03:38:17;3.52;;;2.72;;
23270;SDS011;11804;51.118;17.058;2023-07-16T03:40:48;3.80;;;2.60;;
23270;SDS011;11804;51.118;17.058;2023-07-16T03:43:16;3.77;;;2.83;;
23270;SDS011;11804;51.118;17.058;2023-07-16T03:45:44;3.00;;;2.35;;
23270;SDS011;11804;51.118;17.058;2023-07-16T03:48:12;4.90;;;2.98;;
23270;SDS011;11804;51.118;17.058;2023-07-16T03:50:40;3.05;;;2.70;;
23270;SDS011;11804;51.118;17.058;2023-07-16T03:53:08;4.05;;;3.05;;
23270;SDS011;11804;51.118;17.058;2023-07-16T03:55:35;4.10;;;2.58;;
23270;SDS011;11804;51.118;17.058;2023-07-16T03:58:03;3.80;;;2.85;;
23270;SDS011;11804;51.118;17.058;2023-07-16T04:00:30;4.15;;;2.25;;
23270;SDS011;11804;51.118;17.058;2023-07-16T04:02:59;6.90;;;3.05;;
23270;SDS011;11804;51.118;17.058;2023-07-16T04:05:26;4.12;;;2.70;;
23270;SDS011;11804;51.118;17.058;2023-07-16T04:07:54;3.83;;;2.60;;
23270;SDS011;11804;51.118;17.058;2023-07-16T04:10:21;3.33;;;2.42;;
23270;SDS011;11804;51.118;17.058;2023-07-16T04:12:50;4.12;;;2.30;;
23270;SDS011;11804;51.118;17.058;2023-07-16T04:15:18;4.45;;;2.65;;
23270;SDS011;11804;51.118;17.058;2023-07-16T04:17:46;2.95;;;2.30;;
23270;SDS011;11804;51.118;17.058;2023-07-16T04:20:13;3.72;;;2.30;;
23270;SDS011;11804;51.118;17.058;2023-07-16T04:22:41;3.00;;;2.55;;
23270;SDS011;11804;51.118;17.058;2023-07-16T04:25:09;2.72;;;2.20;;
23270;SDS011;11804;51.118;17.058;2023-07-16T04:27:37;5.30;;;2.45;;
23270;SDS011;11804;51.118;17.058;2023-07-16T04:30:07;3.15;;;2.40;;
23270;SDS011;11804;51.118;17.058;2023-07-16T04:32:35;3.05;;;2.25;;
23270;SDS011;11804;51.118;17.058;2023-07-16T04:35:02;3.72;;;2.45;;
23270;SDS011;11804;51.118;17.058;2023-07-16T04:37:30;3.55;;;2.58;;
23270;SDS011;11804;51.118;17.058;2023-07-16T04:39:58;2.95;;;2.30;;
23270;SDS011;11804;51.118;17.058;2023-07-16T04:42:25;2.83;;;2.20;;
23270;SDS011;11804;51.118;17.058;2023-07-16T04:44:53;3.92;;;2.80;;
23270;SDS011;11804;51.118;17.058;2023-07-16T04:47:21;3.67;;;2.33;;
23270;SDS011;11804;51.118;17.058;2023-07-16T04:49:48;5.97;;;2.70;;
23270;SDS011;11804;51.118;17.058;2023-07-16T04:52:16;2.72;;;2.37;;
23270;SDS011;11804;51.118;17.058;2023-07-16T04:54:43;2.60;;;2.20;;
23270;SDS011;11804;51.118;17.058;2023-07-16T04:57:11;2.85;;;2.22;;
23270;SDS011;11804;51.118;17.058;2023-07-16T04:59:38;2.58;;;2.37;;
23270;SDS011;11804;51.118;17.058;2023-07-16T05:02:06;3.22;;;2.33;;
23270;SDS011;11804;51.118;17.058;2023-07-16T05:04:34;2.50;;;2.22;;
23270;SDS011;11804;51.118;17.058;2023-07-16T05:07:02;3.62;;;2.30;;
23270;SDS011;11804;51.118;17.058;2023-07-16T05:09:30;2.35;;;1.85;;
23270;SDS011;11804;51.118;17.058;2023-07-16T05:11:58;2.72;;;2.27;;
23270;SDS011;11804;51.118;17.058;2023-07-16T05:14:26;3.10;;;2.12;;
23270;SDS011;11804;51.118;17.058;2023-07-16T05:16:55;3.58;;;2.10;;
23270;SDS011;11804;51.118;17.058;2023-07-16T05:19:23;3.08;;;2.30;;
23270;SDS011;11804;51.118;17.058;2023-07-16T05:21:50;3.33;;;2.42;;
23270;SDS011;11804;51.118;17.058;2023-07-16T05:24:18;2.30;;;2.08;;
23270;SDS011;11804;51.118;17.058;2023-07-16T05:26:47;3.75;;;2.10;;
23270;SDS011;11804;51.118;17.058;2023-07-16T05:29:16;3.27;;;2.37;;
23270;SDS011;11804;51.118;17.058;2023-07-16T05:31:44;3.17;;;2.45;;
23270;SDS011;11804;51.118;17.058;2023-07-16T05:34:12;3.05;;;2.10;;
23270;SDS011;11804;51.118;17.058;2023-07-16T05:36:41;2.30;;;2.05;;
23270;SDS011;11804;51.118;17.058;2023-07-16T05:39:10;1.90;;;1.72;;
23270;SDS011;11804;51.118;17.058;2023-07-16T05:41:40;4.72;;;1.90;;
23270;SDS011;11804;51.118;17.058;2023-07-16T05:44:08;2.22;;;2.02;;
23270;SDS011;11804;51.118;17.058;2023-07-16T05:46:36;3.90;;;2.12;;
23270;SDS011;11804;51.118;17.058;2023-07-16T05:49:04;2.58;;;2.17;;
23270;SDS011;11804;51.118;17.058;2023-07-16T05:51:34;2.85;;;1.85;;
23270;SDS011;11804;51.118;17.058;2023-07-16T05:54:01;2.77;;;2.02;;
23270;SDS011;11804;51.118;17.058;2023-07-16T05:56:29;2.17;;;1.62;;
23270;SDS011;11804;51.118;17.058;2023-07-16T05:58:57;2.37;;;1.67;;
23270;SDS011;11804;51.118;17.058;2023-07-16T06:01:24;1.60;;;1.50;;
23270;SDS011;11804;51.118;17.058;2023-07-16T06:03:52;3.05;;;1.60;;
23270;SDS011;11804;51.118;17.058;2023-07-16T06:06:20;2.45;;;1.52;;
23270;SDS011;11804;51.118;17.058;2023-07-16T06:08:47;2.10;;;1.90;;
23270;SDS011;11804;51.118;17.058;2023-07-16T06:11:15;2.60;;;1.70;;
23270;SDS011;11804;51.118;17.058;2023-07-16T06:13:43;3.17;;;1.82;;
23270;SDS011;11804;51.118;17.058;2023-07-16T06:16:10;2.40;;;1.40;;
23270;SDS011;11804;51.118;17.058;2023-07-16T06:18:38;2.22;;;1.60;;
23270;SDS011;11804;51.118;17.058;2023-07-16T06:21:05;2.00;;;1.20;;
23270;SDS011;11804;51.118;17.058;2023-07-16T06:23:33;2.40;;;1.67;;
23270;SDS011;11804;51.118;17.058;2023-07-16T06:26:01;1.47;;;1.37;;
23270;SDS011;11804;51.118;17.058;2023-07-16T06:28:28;1.82;;;1.45;;
23270;SDS011;11804;51.118;17.058;2023-07-16T06:30:56;2.33;;;1.60;;
23270;SDS011;11804;51.118;17.058;2023-07-16T06:33:24;1.87;;;1.37;;
23270;SDS011;11804;51.118;17.058;2023-07-16T06:35:53;2.22;;;1.20;;
23270;SDS011;11804;51.118;17.058;2023-07-16T06:38:20;2.27;;;1.67;;
23270;SDS011;11804;51.118;17.058;2023-07-16T06:40:48;3.80;;;1.40;;
23270;SDS011;11804;51.118;17.058;2023-07-16T06:43:17;1.62;;;1.50;;
23270;SDS011;11804;51.118;17.058;2023-07-16T06:45:45;2.27;;;1.50;;
23270;SDS011;11804;51.118;17.058;2023-07-16T06:48:14;1.30;;;1.20;;
23270;SDS011;11804;51.118;17.058;2023-07-16T06:50:42;6.85;;;1.50;;
23270;SDS011;11804;51.118;17.058;2023-07-16T06:53:09;1.40;;;1.20;;
23270;SDS011;11804;51.118;17.058;2023-07-16T06:55:37;2.90;;;1.90;;
23270;SDS011;11804;51.118;17.058;2023-07-16T06:58:04;1.57;;;1.25;;
23270;SDS011;11804;51.118;17.058;2023-07-16T07:00:34;2.27;;;1.60;;
23270;SDS011;11804;51.118;17.058;2023-07-16T07:03:01;3.08;;;1.52;;
23270;SDS011;11804;51.118;17.058;2023-07-16T07:05:29;4.20;;;1.45;;
23270;SDS011;11804;51.118;17.058;2023-07-16T07:07:56;2.08;;;1.10;;
23270;SDS011;11804;51.118;17.058;2023-07-16T07:10:24;1.92;;;1.42;;
23270;SDS011;11804;51.118;17.058;2023-07-16T07:12:51;1.27;;;1.00;;
23270;SDS011;11804;51.118;17.058;2023-07-16T07:15:21;2.10;;;1.42;;
23270;SDS011;11804;51.118;17.058;2023-07-16T07:17:48;1.75;;;1.15;;
23270;SDS011;11804;51.118;17.058;2023-07-16T07:20:17;3.45;;;1.30;;
23270;SDS011;11804;51.118;17.058;2023-07-16T07:22:45;1.57;;;1.10;;
23270;SDS011;11804;51.118;17.058;2023-07-16T07:25:13;1.05;;;0.95;;
23270;SDS011;11804;51.118;17.058;2023-07-16T07:27:40;1.32;;;1.10;;
23270;SDS011;11804;51.118;17.058;2023-07-16T07:30:08;0.98;;;0.88;;
23270;SDS011;11804;51.118;17.058;2023-07-16T07:32:36;1.37;;;1.20;;
23270;SDS011;11804;51.118;17.058;2023-07-16T07:35:06;1.12;;;1.00;;
23270;SDS011;11804;51.118;17.058;2023-07-16T07:37:34;2.60;;;1.10;;
23270;SDS011;11804;51.118;17.058;2023-07-16T07:40:02;0.98;;;0.80;;
23270;SDS011;11804;51.118;17.058;2023-07-16T07:42:30;1.25;;;0.90;;
23270;SDS011;11804;51.118;17.058;2023-07-16T07:44:58;1.60;;;1.02;;
23270;SDS011;11804;51.118;17.058;2023-07-16T07:47:26;2.15;;;1.30;;
23270;SDS011;11804;51.118;17.058;2023-07-16T07:52:20;1.22;;;1.10;;
23270;SDS011;11804;51.118;17.058;2023-07-16T07:54:50;1.25;;;1.00;;
23270;SDS011;11804;51.118;17.058;2023-07-16T07:57:17;1.40;;;0.90;;
23270;SDS011;11804;51.118;17.058;2023-07-16T07:59:46;1.00;;;0.80;;
23270;SDS011;11804;51.118;17.058;2023-07-16T08:02:13;0.82;;;0.80;;
23270;SDS011;11804;51.118;17.058;2023-07-16T08:04:41;1.17;;;0.90;;
23270;SDS011;11804;51.118;17.058;2023-07-16T08:07:12;0.82;;;0.75;;
23270;SDS011;11804;51.118;17.058;2023-07-16T08:09:39;1.47;;;1.00;;
23270;SDS011;11804;51.118;17.058;2023-07-16T08:12:07;1.85;;;1.32;;
23270;SDS011;11804;51.118;17.058;2023-07-16T08:14:35;1.05;;;0.80;;
23270;SDS011;11804;51.118;17.058;2023-07-16T08:17:03;0.62;;;0.62;;
23270;SDS011;11804;51.118;17.058;2023-07-16T08:19:31;1.10;;;0.80;;
23270;SDS011;11804;51.118;17.058;2023-07-16T08:21:58;0.62;;;0.60;;
23270;SDS011;11804;51.118;17.058;2023-07-16T08:24:26;1.10;;;1.00;;
23270;SDS011;11804;51.118;17.058;2023-07-16T08:26:54;1.00;;;0.75;;
23270;SDS011;11804;51.118;17.058;2023-07-16T08:29:21;1.37;;;0.78;;
23270;SDS011;11804;51.118;17.058;2023-07-16T08:31:50;3.98;;;0.90;;
23270;SDS011;11804;51.118;17.058;2023-07-16T08:34:18;2.25;;;0.80;;
23270;SDS011;11804;51.118;17.058;2023-07-16T08:36:45;1.35;;;0.90;;
23270;SDS011;11804;51.118;17.058;2023-07-16T08:39:14;0.85;;;0.70;;
23270;SDS011;11804;51.118;17.058;2023-07-16T08:41:44;1.70;;;0.93;;
23270;SDS011;11804;51.118;17.058;2023-07-16T08:44:12;1.02;;;0.93;;
23270;SDS011;11804;51.118;17.058;2023-07-16T08:46:40;0.80;;;0.78;;
23270;SDS011;11804;51.118;17.058;2023-07-16T08:49:07;0.60;;;0.60;;
23270;SDS011;11804;51.118;17.058;2023-07-16T08:51:36;1.15;;;0.70;;
23270;SDS011;11804;51.118;17.058;2023-07-16T08:54:05;2.08;;;0.85;;
23270;SDS011;11804;51.118;17.058;2023-07-16T08:56:33;0.82;;;0.82;;
23270;SDS011;11804;51.118;17.058;2023-07-16T08:59:01;1.98;;;1.15;;
23270;SDS011;11804;51.118;17.058;2023-07-16T09:01:29;1.50;;;0.90;;
23270;SDS011;11804;51.118;17.058;2023-07-16T09:03:56;1.35;;;1.02;;
23270;SDS011;11804;51.118;17.058;2023-07-16T09:06:24;0.60;;;0.60;;
23270;SDS011;11804;51.118;17.058;2023-07-16T09:08:52;1.00;;;0.88;;
23270;SDS011;11804;51.118;17.058;2023-07-16T09:11:21;1.22;;;0.82;;
23270;SDS011;11804;51.118;17.058;2023-07-16T09:13:49;0.95;;;0.70;;
23270;SDS011;11804;51.118;17.058;2023-07-16T09:16:20;2.30;;;0.98;;
23270;SDS011;11804;51.118;17.058;2023-07-16T09:18:47;3.05;;;1.05;;
23270;SDS011;11804;51.118;17.058;2023-07-16T09:21:20;1.32;;;1.00;;
23270;SDS011;11804;51.118;17.058;2023-07-16T09:23:44;1.30;;;1.10;;
23270;SDS011;11804;51.118;17.058;2023-07-16T09:26:12;1.00;;;0.90;;
23270;SDS011;11804;51.118;17.058;2023-07-16T09:28:47;1.47;;;1.00;;
23270;SDS011;11804;51.118;17.058;2023-07-16T09:31:09;1.57;;;0.95;;
23270;SDS011;11804;51.118;17.058;2023-07-16T09:33:38;1.82;;;1.07;;
23270;SDS011;11804;51.118;17.058;2023-07-16T09:36:32;1.45;;;1.00;;
23270;SDS011;11804;51.118;17.058;2023-07-16T09:38:54;1.90;;;1.15;;
23270;SDS011;11804;51.118;17.058;2023-07-16T09:41:23;1.80;;;1.20;;
23270;SDS011;11804;51.118;17.058;2023-07-16T09:43:51;1.22;;;1.10;;
23270;SDS011;11804;51.118;17.058;2023-07-16T09:46:19;1.50;;;1.12;;
23270;SDS011;11804;51.118;17.058;2023-07-16T09:48:47;0.95;;;0.80;;
23270;SDS011;11804;51.118;17.058;2023-07-16T09:51:15;2.08;;;1.10;;
23270;SDS011;11804;51.118;17.058;2023-07-16T09:53:43;1.22;;;1.12;;
23270;SDS011;11804;51.118;17.058;2023-07-16T09:56:13;1.05;;;0.98;;
23270;SDS011;11804;51.118;17.058;2023-07-16T09:58:42;3.15;;;1.40;;
23270;SDS011;11804;51.118;17.058;2023-07-16T10:01:11;1.95;;;1.40;;
23270;SDS011;11804;51.118;17.058;2023-07-16T10:03:53;1.27;;;1.00;;
23270;SDS011;11804;51.118;17.058;2023-07-16T10:06:18;1.47;;;1.20;;
23270;SDS011;11804;51.118;17.058;2023-07-16T10:08:49;2.75;;;1.20;;
23270;SDS011;11804;51.118;17.058;2023-07-16T10:11:18;1.00;;;0.90;;
23270;SDS011;11804;51.118;17.058;2023-07-16T10:13:49;3.30;;;0.95;;
23270;SDS011;11804;51.118;17.058;2023-07-16T10:16:20;1.50;;;1.10;;
23270;SDS011;11804;51.118;17.058;2023-07-16T10:18:52;2.00;;;1.40;;
23270;SDS011;11804;51.118;17.058;2023-07-16T10:21:23;1.27;;;0.98;;
23270;SDS011;11804;51.118;17.058;2023-07-16T10:23:58;1.20;;;1.02;;
23270;SDS011;11804;51.118;17.058;2023-07-16T10:26:29;1.80;;;1.27;;
23270;SDS011;11804;51.118;17.058;2023-07-16T10:28:57;1.57;;;1.07;;
23270;SDS011;11804;51.118;17.058;2023-07-16T10:31:25;1.87;;;1.20;;
23270;SDS011;11804;51.118;17.058;2023-07-16T10:33:57;2.58;;;1.22;;
23270;SDS011;11804;51.118;17.058;2023-07-16T10:36:26;1.30;;;1.20;;
23270;SDS011;11804;51.118;17.058;2023-07-16T10:38:54;1.50;;;1.22;;
23270;SDS011;11804;51.118;17.058;2023-07-16T10:41:23;1.80;;;1.32;;
23270;SDS011;11804;51.118;17.058;2023-07-16T10:43:51;1.20;;;1.10;;
23270;SDS011;11804;51.118;17.058;2023-07-16T10:46:19;2.67;;;1.22;;
23270;SDS011;11804;51.118;17.058;2023-07-16T10:48:47;1.20;;;1.10;;
23270;SDS011;11804;51.118;17.058;2023-07-16T10:51:15;1.40;;;1.30;;
23270;SDS011;11804;51.118;17.058;2023-07-16T10:53:43;1.50;;;1.17;;
23270;SDS011;11804;51.118;17.058;2023-07-16T10:56:11;1.42;;;1.20;;
23270;SDS011;11804;51.118;17.058;2023-07-16T10:58:38;1.42;;;1.10;;
23270;SDS011;11804;51.118;17.058;2023-07-16T11:01:08;1.98;;;1.35;;
23270;SDS011;11804;51.118;17.058;2023-07-16T11:03:35;1.07;;;0.98;;
23270;SDS011;11804;51.118;17.058;2023-07-16T11:06:08;1.27;;;1.17;;
23270;SDS011;11804;51.118;17.058;2023-07-16T11:08:34;1.17;;;1.00;;
23270;SDS011;11804;51.118;17.058;2023-07-16T11:11:01;2.70;;;0.93;;
23270;SDS011;11804;51.118;17.058;2023-07-16T11:13:31;1.57;;;1.10;;
23270;SDS011;11804;51.118;17.058;2023-07-16T11:16:07;1.17;;;1.07;;
23270;SDS011;11804;51.118;17.058;2023-07-16T11:18:36;3.08;;;1.25;;
23270;SDS011;11804;51.118;17.058;2023-07-16T11:21:04;2.45;;;1.15;;
23270;SDS011;11804;51.118;17.058;2023-07-16T11:23:34;1.70;;;1.20;;
23270;SDS011;11804;51.118;17.058;2023-07-16T11:26:02;1.82;;;1.20;;
23270;SDS011;11804;51.118;17.058;2023-07-16T11:28:37;2.52;;;1.00;;
23270;SDS011;11804;51.118;17.058;2023-07-16T11:31:16;1.30;;;1.00;;
23270;SDS011;11804;51.118;17.058;2023-07-16T11:33:45;1.15;;;0.93;;
23270;SDS011;11804;51.118;17.058;2023-07-16T11:36:13;1.22;;;1.05;;
23270;SDS011;11804;51.118;17.058;2023-07-16T11:38:42;1.67;;;0.90;;
23270;SDS011;11804;51.118;17.058;2023-07-16T11:41:10;1.47;;;1.00;;
23270;SDS011;11804;51.118;17.058;2023-07-16T11:43:39;0.98;;;0.88;;
23270;SDS011;11804;51.118;17.058;2023-07-16T11:46:14;1.30;;;0.88;;
23270;SDS011;11804;51.118;17.058;2023-07-16T11:48:43;1.65;;;0.90;;
23270;SDS011;11804;51.118;17.058;2023-07-16T11:51:10;0.62;;;0.62;;
23270;SDS011;11804;51.118;17.058;2023-07-16T11:53:38;1.02;;;0.90;;
23270;SDS011;11804;51.118;17.058;2023-07-16T11:56:06;3.05;;;1.55;;
23270;SDS011;11804;51.118;17.058;2023-07-16T11:58:33;1.05;;;0.80;;
23270;SDS011;11804;51.118;17.058;2023-07-16T12:01:01;0.82;;;0.78;;
23270;SDS011;11804;51.118;17.058;2023-07-16T12:03:28;0.95;;;0.70;;
23270;SDS011;11804;51.118;17.058;2023-07-16T12:05:56;0.70;;;0.62;;
23270;SDS011;11804;51.118;17.058;2023-07-16T12:08:24;1.25;;;0.85;;
23270;SDS011;11804;51.118;17.058;2023-07-16T12:10:51;1.00;;;0.82;;
23270;SDS011;11804;51.118;17.058;2023-07-16T12:13:20;1.12;;;0.80;;
23270;SDS011;11804;51.118;17.058;2023-07-16T12:15:47;2.80;;;1.37;;
23270;SDS011;11804;51.118;17.058;2023-07-16T12:18:14;2.72;;;0.93;;
23270;SDS011;11804;51.118;17.058;2023-07-16T12:20:42;0.90;;;0.70;;
23270;SDS011;11804;51.118;17.058;2023-07-16T12:23:10;0.82;;;0.82;;
23270;SDS011;11804;51.118;17.058;2023-07-16T12:25:37;2.05;;;0.95;;
23270;SDS011;11804;51.118;17.058;2023-07-16T12:28:05;1.60;;;0.85;;
23270;SDS011;11804;51.118;17.058;2023-07-16T12:30:33;3.75;;;1.57;;
23270;SDS011;11804;51.118;17.058;2023-07-16T12:33:00;1.27;;;0.80;;
23270;SDS011;11804;51.118;17.058;2023-07-16T12:35:29;1.00;;;0.80;;
23270;SDS011;11804;51.118;17.058;2023-07-16T12:37:57;1.12;;;0.90;;
23270;SDS011;11804;51.118;17.058;2023-07-16T12:40:25;1.15;;;1.00;;
23270;SDS011;11804;51.118;17.058;2023-07-16T12:42:54;1.20;;;1.10;;
23270;SDS011;11804;51.118;17.058;2023-07-16T12:45:21;1.00;;;0.90;;
23270;SDS011;11804;51.118;17.058;2023-07-16T12:47:49;2.85;;;1.37;;
23270;SDS011;11804;51.118;17.058;2023-07-16T12:50:17;1.55;;;1.25;;
23270;SDS011;11804;51.118;17.058;2023-07-16T12:52:44;3.15;;;2.42;;
23270;SDS011;11804;51.118;17.058;2023-07-16T12:55:12;1.25;;;1.10;;
23270;SDS011;11804;51.118;17.058;2023-07-16T12:57:39;1.15;;;0.98;;
23270;SDS011;11804;51.118;17.058;2023-07-16T13:00:07;1.00;;;0.90;;
23270;SDS011;11804;51.118;17.058;2023-07-16T13:02:36;1.75;;;1.00;;
23270;SDS011;11804;51.118;17.058;2023-07-16T13:05:05;1.40;;;1.10;;
23270;SDS011;11804;51.118;17.058;2023-07-16T13:07:33;1.20;;;1.10;;
23270;SDS011;11804;51.118;17.058;2023-07-16T13:10:03;1.87;;;1.02;;
23270;SDS011;11804;51.118;17.058;2023-07-16T13:12:30;3.08;;;1.65;;
23270;SDS011;11804;51.118;17.058;2023-07-16T13:14:58;4.17;;;3.72;;
23270;SDS011;11804;51.118;17.058;2023-07-16T13:17:25;1.90;;;1.17;;
23270;SDS011;11804;51.118;17.058;2023-07-16T13:19:53;1.60;;;1.10;;
23270;SDS011;11804;51.118;17.058;2023-07-16T13:22:23;3.05;;;1.30;;
23270;SDS011;11804;51.118;17.058;2023-07-16T13:24:51;0.85;;;0.85;;
23270;SDS011;11804;51.118;17.058;2023-07-16T13:27:19;1.20;;;0.98;;
23270;SDS011;11804;51.118;17.058;2023-07-16T13:29:48;1.07;;;0.98;;
23270;SDS011;11804;51.118;17.058;2023-07-16T13:32:16;1.42;;;1.25;;
23270;SDS011;11804;51.118;17.058;2023-07-16T13:34:43;1.35;;;1.10;;
23270;SDS011;11804;51.118;17.058;2023-07-16T13:37:11;1.45;;;1.05;;
23270;SDS011;11804;51.118;17.058;2023-07-16T13:39:40;1.37;;;0.95;;
23270;SDS011;11804;51.118;17.058;2023-07-16T13:42:07;1.42;;;1.02;;
23270;SDS011;11804;51.118;17.058;2023-07-16T13:44:37;1.00;;;0.88;;
23270;SDS011;11804;51.118;17.058;2023-07-16T13:47:04;1.10;;;0.98;;
23270;SDS011;11804;51.118;17.058;2023-07-16T13:49:32;1.52;;;1.20;;
23270;SDS011;11804;51.118;17.058;2023-07-16T13:51:59;1.22;;;1.12;;
23270;SDS011;11804;51.118;17.058;2023-07-16T13:54:27;1.87;;;1.22;;
23270;SDS011;11804;51.118;17.058;2023-07-16T13:56:55;1.07;;;0.98;;
23270;SDS011;11804;51.118;17.058;2023-07-16T13:59:22;1.52;;;1.00;;
23270;SDS011;11804;51.118;17.058;2023-07-16T14:01:58;1.37;;;1.10;;
23270;SDS011;11804;51.118;17.058;2023-07-16T14:04:27;1.62;;;0.93;;
23270;SDS011;11804;51.118;17.058;2023-07-16T14:06:55;1.57;;;1.10;;
23270;SDS011;11804;51.118;17.058;2023-07-16T14:09:22;2.47;;;1.37;;
23270;SDS011;11804;51.118;17.058;2023-07-16T14:11:50;2.40;;;1.12;;
23270;SDS011;11804;51.118;17.058;2023-07-16T14:14:18;1.42;;;1.05;;
23270;SDS011;11804;51.118;17.058;2023-07-16T14:16:46;2.95;;;1.30;;
23270;SDS011;11804;51.118;17.058;2023-07-16T14:19:13;1.30;;;1.20;;
23270;SDS011;11804;51.118;17.058;2023-07-16T14:21:43;2.37;;;1.12;;
23270;SDS011;11804;51.118;17.058;2023-07-16T14:24:10;1.60;;;1.27;;
23270;SDS011;11804;51.118;17.058;2023-07-16T14:26:38;1.40;;;1.07;;
23270;SDS011;11804;51.118;17.058;2023-07-16T14:29:06;1.10;;;1.00;;
23270;SDS011;11804;51.118;17.058;2023-07-16T14:31:34;1.40;;;1.10;;
23270;SDS011;11804;51.118;17.058;2023-07-16T14:34:01;1.52;;;1.42;;
23270;SDS011;11804;51.118;17.058;2023-07-16T14:36:29;1.65;;;1.07;;
23270;SDS011;11804;51.118;17.058;2023-07-16T14:38:57;2.00;;;1.25;;
23270;SDS011;11804;51.118;17.058;2023-07-16T14:41:24;4.30;;;1.45;;
23270;SDS011;11804;51.118;17.058;2023-07-16T14:43:52;2.55;;;1.62;;
23270;SDS011;11804;51.118;17.058;2023-07-16T14:46:21;3.40;;;1.20;;
23270;SDS011;11804;51.118;17.058;2023-07-16T14:48:49;1.50;;;1.35;;
23270;SDS011;11804;51.118;17.058;2023-07-16T14:51:18;1.30;;;1.20;;
23270;SDS011;11804;51.118;17.058;2023-07-16T14:53:45;1.40;;;1.20;;